D/T METAR WX W/SPE G/SPE TEMP DEWP FEEL
31/01/23 12:50 EGQL 311250Z 27026KT 9999 FEW040 06/01 Q1012 RMK BLU 29.9mph 6°C 1°C 4.1°C
31/01/23 05:50 EGQL 310550Z 26024KT 9999 -RA FEW018 BKN027 BKN075 07/03 Q1009 RMK BLU -RA 27.6mph 7°C 3°C 5.7°C
30/01/23 21:50 EGQL 302150Z 25016KT 9999 BKN013 OVC042 07/05 Q1014 RMK GRN 18.4mph 7°C 5°C 6.3°C
30/01/23 12:50 EGQL 301250Z 28014KT 9999 FEW040 09/00 Q1020 RMK BLU 16.1mph 9°C 0°C 6.8°C
30/01/23 11:50 EGQL 301150Z 28012KT 9999 FEW045 08/00 Q1020 RMK BLU 13.8mph 8°C 0°C 5.8°C
30/01/23 10:50 EGQL 301050Z 27014KT 9999 FEW040 08/00 Q1019 RMK BLU 16.1mph 8°C 0°C 5.8°C
30/01/23 07:50 EGQL 300750Z 29014KT 9999 SKC 06/00 Q1016 RMK BLU 16.1mph 6°C 0°C 3.8°C
30/01/23 06:50 EGQL 300650Z 28015KT 9999 SKC 06/M00 Q1015 RMK BLU 17.3mph 6°C 0°C 3.8°C
09/01/23 05:50 EGQL 090550Z 27010KT 9999 VCSH FEW020 SCT040 03/02 Q0983 RMK BLU VCSH 11.5mph 3°C 2°C 1.4°C
09/01/23 03:50 EGQL 090350Z 27007KT 9999 -SHRA FEW025 SCT035 03/02 Q0983 RMK BLU -SHRA 8.1mph 3°C 2°C 1.4°C
09/01/23 02:50 EGQL 090250Z 35009KT 9999 VCSH FEW035 SCT120 02/02 Q0982 VCSH 10.4mph 2°C 2°C 0.4°C
09/01/23 01:20 EGQL 090120Z 26010KT 9999 FEW035 BKN170 02/01 Q0981 RMK BLU 11.5mph 2°C 1°C 0.1°C
09/01/23 01:00 EGQL 090100Z 26010KT 9999 FEW035 BKN170 03/02 Q0981 RMK BLU 11.5mph 3°C 2°C 1.4°C
08/01/23 23:50 EGQL 082350Z 28004KT 9999 SCT015 BKN230 03/02 Q0980 RMK WHT 4.6mph 3°C 2°C 1.4°C
08/01/23 22:50 EGQL 082250Z 25004KT 9999 BKN016 03/02 Q0979 RMK WHT 4.6mph 3°C 2°C 1.4°C
08/01/23 22:20 EGQL 082220Z AUTO 24007KT 9999 OVC018/// 05/02 Q0979 8.1mph 5°C 2°C 3.4°C
08/01/23 21:50 EGQL 082150Z 24007KT 9999 SCT018 05/02 Q0979 RMK WHT 8.1mph 5°C 2°C 3.4°C
08/01/23 20:20 EGQL 082020Z AUTO 22009KT 9999 FEW025/// BKN030/// 04/02 Q0979 10.4mph 4°C 2°C 2.4°C
08/01/23 18:50 EGQL 081850Z 22008KT 9999 FEW031 03/01 Q0978 RMK BLU 9.2mph 3°C 1°C 1.1°C
08/01/23 17:50 EGQL 081750Z 27004KT 9999 SKC 03/01 Q0978 RMK BLU 4.6mph 3°C 1°C 1.1°C
08/01/23 16:50 EGQL 081650Z 19010KT CAVOK 04/01 Q0979 RMK BLU 11.5mph 4°C 1°C 2.1°C
08/01/23 15:50 EGQL 081550Z 19011KT CAVOK 05/03 Q0978 RMK BLU 12.7mph 5°C 3°C 3.7°C
08/01/23 13:50 EGQL 081350Z 22018KT 9999 FEW040 SCT049 07/03 Q0979 RMK BLU 20.7mph 7°C 3°C 5.7°C
08/01/23 12:50 EGQL 081250Z 24019KT 9999 BKN028 06/03 Q0980 RMK BLU 21.9mph 6°C 3°C 4.7°C
08/01/23 11:50 EGQL 081150Z 25009KT 9999 BKN030 07/03 Q0980 RMK BLU 10.4mph 7°C 3°C 5.7°C
08/01/23 10:50 EGQL 081050Z 23011KT 9999 BKN038 07/03 Q0980 RMK BLU 12.7mph 7°C 3°C 5.7°C
08/01/23 09:50 EGQL 080950Z 23016KT CAVOK 07/02 Q0980 RMK BLU 18.4mph 7°C 2°C 5.4°C
08/01/23 08:50 EGQL 080850Z 22020KT CAVOK 07/02 Q0980 RMK BLU 23.0mph 7°C 2°C 5.4°C
08/01/23 07:50 EGQL 080750Z 22020KT CAVOK 07/02 Q0980 RMK BLU 23.0mph 7°C 2°C 5.4°C
08/01/23 07:20 EGQL 080720Z AUTO 22019KT 9999 NCD 07/03 Q0980 21.9mph 7°C 3°C 5.7°C
08/01/23 06:50 EGQL 080650Z 23018KT CAVOK 07/02 Q0980 RMK BLU 20.7mph 7°C 2°C 5.4°C
08/01/23 05:50 EGQL 080550Z 22021KT CAVOK 07/02 Q0980 RMK BLU 24.2mph 7°C 2°C 5.4°C
08/01/23 04:50 EGQL 080450Z 23020KT 9999 FEW030 07/03 Q0980 RMK BLU 23.0mph 7°C 3°C 5.7°C
08/01/23 03:50 EGQL 080350Z AUTO 24019KT 9999 SCT180/// 07/03 Q0979 21.9mph 7°C 3°C 5.7°C
08/01/23 02:50 EGQL 080250Z 23020G30KT 9999 VCSH SCT029 08/04 Q0980 RMK BLU VCSH 23.0mph 34.5mph 8°C 4°C 7.0°C
08/01/23 01:50 EGQL 080150Z 22019KT 9999 SCT030 07/04 Q0979 RMK BLU 21.9mph 7°C 4°C 6.0°C
08/01/23 00:20 EGQL 080020Z AUTO 20014KT 9999 // OVC030/// 08/04 Q0979 16.1mph 8°C 4°C 7.0°C
07/01/23 23:50 EGQL 072350Z 20014KT 9999 VCSH FEW035 SCT054 07/04 Q0979 RMK BLU VCSH 16.1mph 7°C 4°C 6.0°C
07/01/23 23:20 EGQL 072320Z AUTO 21013KT 9999 BKN043/// 07/04 Q0979 15.0mph 7°C 4°C 6.0°C
07/01/23 22:50 EGQL 072250Z 21014KT 9999 FEW046 07/04 Q0980 RMK BLU 16.1mph 7°C 4°C 6.0°C
07/01/23 22:20 EGQL 072220Z AUTO 21014KT 9999 // FEW031/// 07/04 Q0980 16.1mph 7°C 4°C 6.0°C
07/01/23 21:50 EGQL 072150Z 22018KT 9999 -SHRA SCT027 07/04 Q0980 RESHRA RMK BLU -SHRA 20.7mph 7°C 4°C 6.0°C
07/01/23 21:20 EGQL 072120Z AUTO 19008KT 9999 // OVC032/// 08/04 Q0980 9.2mph 8°C 4°C 7.0°C
07/01/23 20:50 EGQL 072050Z 19003KT 9999 VCSH SCT038 07/04 Q0980 RMK BLU VCSH 3.5mph 7°C 4°C 6.0°C
07/01/23 20:20 EGQL 072020Z AUTO 13005KT 9999 BKN034/// 06/03 Q0981 5.8mph 6°C 3°C 4.7°C
07/01/23 19:50 EGQL 071950Z 20006KT 9999 -SHRA SCT033 06/04 Q0981 RMK BLU -SHRA 6.9mph 6°C 4°C 5.0°C
07/01/23 19:20 EGQL 071920Z AUTO 09004KT 9999 SCT038/// 05/03 Q0982 4.6mph 5°C 3°C 3.7°C
07/01/23 18:50 EGQL 071850Z 16005KT 9999 FEW036 07/04 Q0982 RMK BLU 5.8mph 7°C 4°C 6.0°C
07/01/23 18:20 EGQL 071820Z AUTO 18009KT 9999 FEW035/// 07/04 Q0982 10.4mph 7°C 4°C 6.0°C
07/01/23 17:50 EGQL 071750Z 20015KT 9999 SKC 07/04 Q0982 RMK BLU 17.3mph 7°C 4°C 6.0°C
07/01/23 16:50 EGQL 071650Z 18010KT 9999 BKN031 07/04 Q0983 RMK BLU 11.5mph 7°C 4°C 6.0°C
07/01/23 15:50 EGQL 071550Z 21011KT CAVOK 08/04 Q0983 RMK BLU 12.7mph 8°C 4°C 7.0°C
07/01/23 14:50 EGQL 071450Z 22005KT 9999 SCT030 08/05 Q0984 RMK BLU 5.8mph 8°C 5°C 7.3°C
07/01/23 13:50 EGQL 071350Z 18006KT 9999 FEW042 09/06 Q0984 RMK BLU 6.9mph 9°C 6°C 8.6°C
07/01/23 12:50 EGQL 071250Z 14004KT CAVOK 09/08 Q0985 RMK BLU 4.6mph 9°C 8°C 9.4°C
07/01/23 11:50 EGQL 071150Z 13004KT 9999 -SHRA OVC044 07/07 Q0986 RERA RMK BLU -SHRA 4.6mph 7°C 7°C 7.0°C
07/01/23 10:50 EGQL 071050Z 29002KT 4500 RA FEW015 OVC020 07/07 Q0987 RMK GRN RA 2.3mph 7°C 7°C 7.0°C
07/01/23 09:50 EGQL 070950Z 16004KT 9999 OVC023 07/07 Q0987 RMK WHT 4.6mph 7°C 7°C 7.0°C
07/01/23 08:50 EGQL 070850Z 22003KT 9999 -RA OVC030 07/07 Q0988 RMK BLU -RA 3.5mph 7°C 7°C 7.0°C
07/01/23 07:50 EGQL 070750Z 21004KT 9999 -RA SCT028 BKN038 08/07 Q0988 RMK BLU -RA 4.6mph 8°C 7°C 8.0°C
07/01/23 06:50 EGQL 070650Z 08003KT 9999 -RA FEW006 BKN018 OVC030 08/08 Q0989 RMK WHT -RA 3.5mph 8°C 8°C 8.4°C
07/01/23 05:50 EGQL 070550Z 16007KT 9999 -RA SCT030 BKN062 08/08 Q0989 RMK BLU -RA 8.1mph 8°C 8°C 8.4°C
07/01/23 04:50 EGQL 070450Z 15011KT 9999 -RA FEW023 SCT038 BKN066 08/07 Q0989 RMK BLU -RA 12.7mph 8°C 7°C 8.0°C
07/01/23 03:50 EGQL 070350Z 16009KT 9999 -RA OVC027 09/07 Q0991 RMK BLU -RA 10.4mph 9°C 7°C 9.0°C
07/01/23 02:50 EGQL 070250Z AUTO 14013KT 9999 -RA BKN029/// SCT068/// 09/07 Q0992 -RA 15.0mph 9°C 7°C 9.0°C
07/01/23 01:50 EGQL 070150Z 13010KT 9999 SCT030 OVC060 08/06 Q0993 RMK BLU 11.5mph 8°C 6°C 7.6°C
07/01/23 00:50 EGQL 070050Z 15010KT 9999 SCT033 BKN073 08/06 Q0994 RMK BLU 11.5mph 8°C 6°C 7.6°C
07/01/23 00:20 EGQL 070020Z AUTO 10006KT 9999 BKN020/// SCT030/// 08/06 Q0995 6.9mph 8°C 6°C 7.6°C
06/01/23 23:50 EGQL 062350Z 13006KT 9999 OVC034 08/06 Q0996 RMK BLU 6.9mph 8°C 6°C 7.6°C
06/01/23 22:50 EGQL 062250Z 14005KT CAVOK 07/05 Q0998 RMK BLU 5.8mph 7°C 5°C 6.3°C
06/01/23 21:50 EGQL 062150Z 17010KT 9999 SCT040 BKN088 07/05 Q0999 RMK BLU 11.5mph 7°C 5°C 6.3°C
06/01/23 20:50 EGQL 062050Z 31003KT CAVOK 06/03 Q0999 RMK BLU 3.5mph 6°C 3°C 4.7°C
06/01/23 19:50 EGQL 061950Z 16004KT CAVOK 06/04 Q1000 RMK BLU 4.6mph 6°C 4°C 5.0°C
06/01/23 17:20 EGQL 061720Z AUTO 24006KT 9999 BKN026/// OVC120/// 05/03 Q1002 6.9mph 5°C 3°C 3.7°C
06/01/23 16:50 EGQL 061650Z 22007KT 9999 FEW023 05/03 Q1002 RMK BLU 8.1mph 5°C 3°C 3.7°C
06/01/23 13:50 EGQL 061350Z 23015KT 9999 SCT030 09/05 Q1001 RMK BLU 17.3mph 9°C 5°C 8.3°C
06/01/23 12:50 EGQL 061250Z 24012KT 9999 FEW020 SCT028 10/05 Q1001 RMK BLU 13.8mph 10°C 5°C 9.3°C
06/01/23 10:50 EGQL 061050Z 25024KT 9999 FEW022 08/05 Q0999 RMK BLU 27.6mph 8°C 5°C 7.3°C
06/01/23 10:20 EGQL 061020Z AUTO 25027KT 9999 FEW022/// 08/05 Q0998 31.1mph 8°C 5°C 7.3°C
06/01/23 09:50 EGQL 060950Z 24026KT 9999 FEW022 07/05 Q0998 RMK BLU 29.9mph 7°C 5°C 6.3°C
06/01/23 09:20 EGQL 060920Z AUTO 25024KT 9999 FEW022/// 07/04 Q0997 27.6mph 7°C 4°C 6.0°C
06/01/23 08:50 EGQL 060850Z 25023KT 9999 FEW018 07/05 Q0996 RMK BLU 26.5mph 7°C 5°C 6.3°C
06/01/23 08:20 EGQL 060820Z AUTO 25028G38KT 9999 NCD 07/05 Q0995 32.2mph 43.7mph 7°C 5°C 6.3°C
06/01/23 07:50 EGQL 060750Z 25029G42KT 9999 FEW017 SCT022 07/05 Q0995 RMK WHT 33.4mph 48.3mph 7°C 5°C 6.3°C
06/01/23 07:20 EGQL 060720Z AUTO 25030G43KT 9999 OVC016/// 07/05 Q0994 34.5mph 49.5mph 7°C 5°C 6.3°C
06/01/23 06:50 EGQL 060650Z 25034KT 9999 BKN019 07/04 Q0993 RMK WHT 39.1mph 7°C 4°C 6.0°C
06/01/23 05:50 EGQL 060550Z 24031KT 9999 SCT024 BKN030 07/04 Q0993 RMK WHT 35.7mph 7°C 4°C 6.0°C
06/01/23 04:50 EGQL 060450Z AUTO 24029G43KT 9999 // OVC023/// 07/04 Q0993 33.4mph 49.5mph 7°C 4°C 6.0°C
06/01/23 03:50 EGQL 060350Z 24023G35KT 9999 -RA BKN024 07/04 Q0995 RMK WHT -RA 26.5mph 40.3mph 7°C 4°C 6.0°C
06/01/23 02:50 EGQL 060250Z AUTO 24023KT 9999 BKN028/// 07/04 Q0995 26.5mph 7°C 4°C 6.0°C
06/01/23 01:50 EGQL 060150Z 24023G33KT 9999 OVC030 08/04 Q0996 RMK BLU 26.5mph 38.0mph 8°C 4°C 7.0°C
06/01/23 00:50 EGQL 060050Z 23024G35KT 9999 SCT028 07/04 Q0996 RMK BLU 27.6mph 40.3mph 7°C 4°C 6.0°C
05/01/23 23:50 EGQL 052350Z 24017KT CAVOK 07/04 Q0997 RMK BLU 19.6mph 7°C 4°C 6.0°C
05/01/23 22:50 EGQL 052250Z 24017KT 9999 SCT024 BKN030 08/05 Q0997 RMK WHT 19.6mph 8°C 5°C 7.3°C
05/01/23 21:50 EGQL 052150Z 24017KT 9999 SCT028 BKN040 BKN110 08/06 Q0997 RMK BLU 19.6mph 8°C 6°C 7.6°C
05/01/23 20:50 EGQL 052050Z 24019KT 8000 SHRA SCT018 BKN047 BKN100 09/07 Q0998 RMK WHT SHRA 21.9mph 9°C 7°C 9.0°C